Time;durP1;ratioP1;P1;durP2;ratioP2;P2;SDS_P1;SDS_P2;PMS_P1;PMS_P2;Temp;Humidity;BMP_temperature;BMP_pressure;BME280_temperature;BME280_humidity;BME280_pressure;Samples;Min_cycle;Max_cycle;Signal;HPM_P1;HPM_P2
2023/12/13 00:00:31;;;;;;;108.60;73.78;;;;;;;;;;5050508;28;20040;-68
2023/12/13 00:03:35;;;;;;;109.05;74.05;;;;;;;;;;5050214;28;20052;-67
2023/12/13 00:06:39;;;;;;;81.10;53.83;;;;;;;;;;5050252;28;20397;-68
2023/12/13 00:09:44;;;;;;;95.63;62.85;;;;;;;;;;5049939;28;20048;-68
2023/12/13 00:12:48;;;;;;;94.80;62.63;;;;;;;;;;5050718;28;20060;-67
2023/12/13 00:15:53;;;;;;;78.97;50.40;;;;;;;;;;5052809;28;20052;-68
2023/12/13 00:18:57;;;;;;;83.53;58.00;;;;;;;;;;5054123;28;20048;-68
2023/12/13 00:22:01;;;;;;;80.13;54.38;;;;;;;;;;5053848;28;20515;-68
2023/12/13 00:25:06;;;;;;;79.57;55.33;;;14.50;99.90;;;;;;5052977;28;20422;-68
2023/12/13 00:28:10;;;;;;;86.05;58.65;;;;;;;;;;5053504;28;20048;-68
2023/12/13 00:31:15;;;;;;;85.10;59.00;;;;;;;;;;5053769;28;20594;-68
2023/12/13 00:34:19;;;;;;;87.72;61.38;;;;;;;;;;5053960;28;20036;-68
2023/12/13 00:37:23;;;;;;;91.22;60.75;;;;;;;;;;5053662;28;20067;-69
2023/12/13 00:40:28;;;;;;;86.38;59.50;;;;;;;;;;5053758;28;20045;-68
2023/12/13 00:43:32;;;;;;;80.93;57.42;;;;;;;;;;5053590;28;20048;-69
2023/12/13 00:46:37;;;;;;;79.18;59.33;;;;;;;;;;5053297;28;20512;-68
2023/12/13 00:49:41;;;;;;;81.78;59.05;;;;;;;;;;5053279;28;20056;-68
2023/12/13 00:52:48;;;;;;;75.85;54.15;;;;;;;;;;5053275;28;20048;-69
2023/12/13 00:55:53;;;;;;;79.82;54.03;;;;;;;;;;5053209;28;20044;-69
2023/12/13 00:58:57;;;;;;;77.00;55.13;;;;;;;;;;5053160;28;20046;-69
2023/12/13 01:02:03;;;;;;;76.10;50.78;;;;;;;;;;5052989;28;20036;-69
2023/12/13 01:05:07;;;;;;;76.72;51.70;;;;;;;;;;5053266;28;20048;-69
2023/12/13 01:08:11;;;;;;;74.22;50.85;;;;;;;;;;5052696;28;20056;-69
2023/12/13 01:11:16;;;;;;;69.95;51.17;;;;;;;;;;5052925;28;20052;-69
2023/12/13 01:14:20;;;;;;;68.55;49.15;;;;;;;;;;5053152;28;20040;-69
2023/12/13 01:17:24;;;;;;;69.32;47.85;;;;;;;;;;5053310;28;20512;-69
2023/12/13 01:20:29;;;;;;;68.90;45.03;;;;;;;;;;5053009;28;20044;-69
2023/12/13 01:23:33;;;;;;;66.32;43.85;;;;;;;;;;5052218;28;20065;-69
2023/12/13 01:26:38;;;;;;;60.38;44.10;;;;;;;;;;5053091;28;20504;-69
2023/12/13 01:29:42;;;;;;;57.13;41.90;;;;;;;;;;5052574;28;20056;-69
2023/12/13 01:32:47;;;;;;;61.78;41.28;;;;;;;;;;5052598;28;20389;-67
2023/12/13 01:35:51;;;;;;;58.35;40.20;;;;;;;;;;5053219;28;20047;-68
2023/12/13 01:38:55;;;;;;;53.70;38.17;;;;;;;;;;5052466;28;20048;-68
2023/12/13 01:42:00;;;;;;;34.85;18.17;;;;;;;;;;5052723;28;20044;-69
2023/12/13 01:45:04;;;;;;;48.20;29.88;;;;;;;;;;5052303;28;20047;-69
2023/12/13 01:48:08;;;;;;;46.28;31.25;;;;;;;;;;5052003;28;20040;-69
2023/12/13 01:51:13;;;;;;;46.40;29.52;;;;;;;;;;5052679;28;20055;-68
2023/12/13 01:54:19;;;;;;;41.40;28.27;;;14.90;99.90;;;;;;5052502;28;20048;-69
2023/12/13 01:57:23;;;;;;;54.78;32.22;;;;;;;;;;5052517;28;20060;-68
2023/12/13 02:00:29;;;;;;;47.90;31.15;;;;;;;;;;5052032;28;20071;-68
2023/12/13 02:03:34;;;;;;;28.17;19.25;;;13.40;99.90;;;;;;5052219;28;20511;-68
2023/12/13 02:06:42;;;;;;;40.13;24.17;;;13.60;99.90;;;;;;5051516;28;20040;-68
2023/12/13 02:09:46;;;;;;;43.63;28.63;;;;;;;;;;5052179;28;20516;-68
2023/12/13 02:12:51;;;;;;;42.53;28.52;;;13.60;99.90;;;;;;5052046;28;20044;-68
2023/12/13 02:15:55;;;;;;;40.00;29.70;;;;;;;;;;5051494;28;20048;-68
2023/12/13 02:19:00;;;;;;;41.88;29.10;;;;;;;;;;5051932;28;20048;-68
2023/12/13 02:22:07;;;;;;;39.55;28.38;;;13.40;99.90;;;;;;5052104;28;20052;-68
2023/12/13 02:25:15;;;;;;;46.72;30.35;;;13.60;99.90;;;;;;5051946;28;20035;-68
2023/12/13 02:28:19;;;;;;;38.38;28.15;;;;;;;;;;5051253;28;20044;-68
2023/12/13 02:31:25;;;;;;;40.70;28.05;;;13.40;99.90;;;;;;5051453;28;20047;-69
2023/12/13 02:34:29;;;;;;;47.15;31.92;;;;;;;;;;5051646;28;20056;-69
2023/12/13 02:37:34;;;;;;;45.53;30.38;;;;;;;;;;5050966;28;20040;-68
2023/12/13 02:40:38;;;;;;;41.92;29.90;;;;;;;;;;5051479;28;20048;-68
2023/12/13 02:43:43;;;;;;;44.75;31.65;;;;;;;;;;5051296;28;20048;-69
2023/12/13 02:46:47;;;;;;;44.80;33.03;;;;;;;;;;5051475;28;20040;-69
2023/12/13 02:49:52;;;;;;;45.42;31.40;;;;;;;;;;5051189;28;20389;-69
2023/12/13 02:52:56;;;;;;;44.55;29.77;;;;;;;;;;5051202;28;20052;-68
2023/12/13 02:56:00;;;;;;;48.72;32.30;;;;;;;;;;5051971;28;20512;-69
2023/12/13 02:59:05;;;;;;;48.45;31.25;;;12.90;99.90;;;;;;5051131;28;20051;-68
2023/12/13 03:02:09;;;;;;;49.42;33.17;;;;;;;;;;5050840;28;20460;-68
2023/12/13 03:05:13;;;;;;;46.75;31.50;;;;;;;;;;5051240;28;20048;-69
2023/12/13 03:08:18;;;;;;;45.58;32.83;;;;;;;;;;5050657;28;20056;-68
2023/12/13 03:11:22;;;;;;;45.10;31.40;;;;;;;;;;5051128;28;20064;-69
2023/12/13 03:14:26;;;;;;;51.67;33.95;;;;;;;;;;5051124;28;20047;-68
2023/12/13 03:17:30;;;;;;;50.25;34.17;;;;;;;;;;5051079;28;20040;-68
2023/12/13 03:20:35;;;;;;;51.03;35.25;;;;;;;;;;5050817;28;20045;-68
2023/12/13 03:23:39;;;;;;;55.72;36.60;;;;;;;;;;5050747;28;20040;-68
2023/12/13 03:26:44;;;;;;;48.97;34.03;;;;;;;;;;5050935;28;20044;-68
2023/12/13 03:29:48;;;;;;;47.58;31.40;;;;;;;;;;5050393;28;20055;-68
2023/12/13 03:32:53;;;;;;;48.88;33.03;;;;;;;;;;5050796;28;20044;-68
2023/12/13 03:35:57;;;;;;;43.03;31.85;;;;;;;;;;5050527;28;20199;-68
2023/12/13 03:39:02;;;;;;;47.58;31.70;;;;;;;;;;5050664;28;20044;-70
2023/12/13 03:42:06;;;;;;;44.83;30.60;;;;;;;;;;5050545;28;20044;-68
2023/12/13 03:45:10;;;;;;;47.13;31.00;;;;;;;;;;5050495;28;20040;-68
2023/12/13 03:48:14;;;;;;;46.47;29.77;;;;;;;;;;5050622;28;20052;-68
2023/12/13 03:51:19;;;;;;;45.10;30.85;;;;;;;;;;5053494;28;20069;-69
2023/12/13 03:54:23;;;;;;;48.08;30.08;;;;;;;;;;5054679;28;20032;-68
2023/12/13 03:57:30;;;;;;;41.65;26.58;;;;;;;;;;5054505;28;20513;-68
2023/12/13 04:00:35;;;;;;;39.08;25.25;;;;;;;;;;5054390;28;20439;-68
2023/12/13 04:03:39;;;;;;;37.88;24.02;;;;;;;;;;5054295;28;20495;-68
2023/12/13 04:06:43;;;;;;;36.47;25.20;;;;;;;;;;5054113;28;20048;-69
2023/12/13 04:09:48;;;;;;;37.63;24.73;;;;;;;;;;5053820;28;20044;-68
2023/12/13 04:12:52;;;;;;;34.60;21.15;;;13.40;99.90;;;;;;5053975;28;20504;-68
2023/12/13 04:15:56;;;;;;;31.83;21.08;;;;;;;;;;5053871;28;20051;-68
2023/12/13 04:19:01;;;;;;;35.65;21.45;;;;;;;;;;5053807;28;20044;-68
2023/12/13 04:22:06;;;;;;;36.88;22.70;;;;;;;;;;5053571;28;20044;-68
2023/12/13 04:25:10;;;;;;;36.97;21.88;;;;;;;;;;5053926;28;20044;-68
2023/12/13 04:28:15;;;;;;;33.00;19.15;;;;;;;;;;5053708;28;20500;-68
2023/12/13 04:31:19;;;;;;;34.47;19.92;;;;;;;;;;5053559;28;20060;-68
2023/12/13 04:34:24;;;;;;;32.67;19.13;;;;;;;;;;5054173;28;20044;-68
2023/12/13 04:37:28;;;;;;;29.23;19.08;;;;;;;;;;5053532;28;20044;-68
2023/12/13 04:40:32;;;;;;;31.23;18.25;;;;;;;;;;5053366;28;20044;-68
2023/12/13 04:43:37;;;;;;;29.25;16.70;;;;;;;;;;5053409;28;20052;-69
2023/12/13 04:46:41;;;;;;;29.73;16.95;;;;;;;;;;5053358;28;20064;-68
2023/12/13 04:49:45;;;;;;;30.83;15.23;;;;;;;;;;5053251;28;20166;-68
2023/12/13 04:52:50;;;;;;;26.10;14.77;;;;;;;;;;5053028;28;20036;-68
2023/12/13 04:55:54;;;;;;;30.85;17.27;;;;;;;;;;5053225;28;20055;-68
2023/12/13 04:58:58;;;;;;;26.20;15.73;;;;;;;;;;5052418;28;20044;-68
2023/12/13 05:02:03;;;;;;;28.88;16.38;;;;;;;;;;5052865;28;20040;-68
2023/12/13 05:05:08;;;;;;;25.30;13.80;;;;;;;;;;5053166;28;20060;-68
2023/12/13 05:08:12;;;;;;;28.27;15.07;;;;;;;;;;5052696;28;20055;-68
2023/12/13 05:11:16;;;;;;;26.27;13.93;;;;;;;;;;5052702;28;20115;-68
2023/12/13 05:14:21;;;;;;;26.67;14.93;;;;;;;;;;5052957;28;20040;-68
2023/12/13 05:17:25;;;;;;;26.60;14.23;;;;;;;;;;5052860;28;20048;-68
2023/12/13 05:20:29;;;;;;;29.13;16.02;;;;;;;;;;5052687;28;20045;-68
2023/12/13 05:23:36;;;;;;;25.52;15.55;;;15.20;99.90;;;;;;5052623;28;20048;-68
2023/12/13 05:26:41;;;;;;;31.80;14.65;;;;;;;;;;5052744;28;20052;-68
2023/12/13 05:29:45;;;;;;;29.67;14.13;;;;;;;;;;5052466;28;20048;-68
2023/12/13 05:32:53;;;;;;;24.63;13.57;;;13.80;99.90;;;;;;5052370;28;20065;-68
2023/12/13 05:35:57;;;;;;;31.17;14.57;;;;;;;;;;5052398;28;20044;-68
2023/12/13 05:39:02;;;;;;;23.02;14.18;;;;;;;;;;5052318;28;20052;-68
2023/12/13 05:42:07;;;;;;;24.35;12.57;;;;;;;;;;5052439;28;20044;-68
2023/12/13 05:45:12;;;;;;;29.83;15.43;;;;;;;;;;5052595;28;20052;-68
2023/12/13 05:48:19;;;;;;;27.27;15.27;;;;;;;;;;5052357;28;20487;-68
2023/12/13 05:51:23;;;;;;;31.02;15.23;;;;;;;;;;5051998;28;20531;-68
2023/12/13 05:54:30;;;;;;;33.97;14.75;;;;;;;;;;5052113;28;20040;-67
2023/12/13 05:57:35;;;;;;;23.80;10.63;;;;;;;;;;5052032;28;20052;-68
2023/12/13 06:00:39;;;;;;;18.45;9.77;;;;;;;;;;5052195;28;20040;-69
2023/12/13 06:03:44;;;;;;;20.60;10.88;;;13.50;99.90;;;;;;5052044;28;20045;-69
2023/12/13 06:06:48;;;;;;;22.98;11.35;;;;;;;;;;5051833;28;20392;-68
2023/12/13 06:09:53;;;;;;;22.60;11.18;;;;;;;;;;5051863;28;20416;-69
2023/12/13 06:12:57;;;;;;;22.70;10.52;;;;;;;;;;5050527;28;20040;-69
2023/12/13 06:16:02;;;;;;;22.38;7.82;;;;;;;;;;5051988;28;20504;-68
2023/12/13 06:19:06;;;;;;;19.25;7.32;;;;;;;;;;5051632;28;20369;-69
2023/12/13 06:22:12;;;;;;;20.02;7.88;;;;;;;;;;5051123;28;20032;-69
2023/12/13 06:25:16;;;;;;;17.85;8.38;;;;;;;;;;5051594;28;20048;-69
2023/12/13 06:28:22;;;;;;;22.65;7.90;;;;;;;;;;5051499;28;20036;-69
2023/12/13 06:31:29;;;;;;;18.90;7.80;;;13.90;99.90;;;;;;5050993;28;20040;-69
2023/12/13 06:34:34;;;;;;;23.27;9.27;;;;;;;;;;5051844;28;20036;-69
2023/12/13 06:37:41;;;;;;;24.70;8.75;;;;;;;;;;5050631;28;20472;-69
2023/12/13 06:40:46;;;;;;;22.60;10.50;;;;;;;;;;5051735;28;20040;-69
2023/12/13 06:43:50;;;;;;;17.40;11.18;;;;;;;;;;5051553;28;20041;-68
2023/12/13 06:46:56;;;;;;;22.90;11.57;;;;;;;;;;5051038;28;20047;-68
2023/12/13 06:50:02;;;;;;;25.95;11.00;;;;;;;;;;5051178;28;20067;-67
2023/12/13 06:53:06;;;;;;;20.90;11.02;;;;;;;;;;5051226;28;20448;-68
2023/12/13 06:56:10;;;;;;;19.55;8.98;;;;;;;;;;5051159;28;20044;-67
2023/12/13 06:59:14;;;;;;;14.93;7.57;;;;;;;;;;5051144;28;20044;-67
2023/12/13 07:02:22;;;;;;;18.33;6.30;;;;;;;;;;5050806;28;20033;-68
2023/12/13 07:05:26;;;;;;;14.38;4.32;;;;;;;;;;5050974;28;20520;-68
2023/12/13 07:08:31;;;;;;;22.85;9.90;;;;;;;;;;5050591;28;20048;-68
2023/12/13 07:11:35;;;;;;;26.95;10.25;;;;;;;;;;5050805;28;20053;-68
2023/12/13 07:14:39;;;;;;;26.52;11.45;;;;;;;;;;5051100;28;20044;-68
2023/12/13 07:17:44;;;;;;;21.58;9.63;;;;;;;;;;5050641;28;20048;-67
2023/12/13 07:20:48;;;;;;;17.13;8.50;;;;;;;;;;5050758;28;20410;-67
2023/12/13 07:23:52;;;;;;;22.05;9.00;;;;;;;;;;5051435;28;20060;-67
2023/12/13 07:26:57;;;;;;;20.52;8.60;;;;;;;;;;5054814;28;20037;-67
2023/12/13 07:30:01;;;;;;;25.17;10.65;;;;;;;;;;5054844;28;20397;-67
2023/12/13 07:33:06;;;;;;;19.13;10.40;;;;;;;;;;5054493;28;20044;-67
2023/12/13 07:36:14;;;;;;;22.40;10.95;;;;;;;;;;5054943;28;20143;-67
2023/12/13 07:39:19;;;;;;;20.40;10.18;;;;;;;;;;5054558;28;20504;-67
2023/12/13 07:42:23;;;;;;;21.90;10.27;;;;;;;;;;5054857;28;20044;-67
2023/12/13 07:45:28;;;;;;;15.25;8.30;;;;;;;;;;5054608;28;20151;-67
2023/12/13 07:48:32;;;;;;;16.70;7.60;;;;;;;;;;5054091;28;20037;-67
2023/12/13 07:51:36;;;;;;;15.38;8.05;;;;;;;;;;5054025;28;20045;-68
2023/12/13 07:54:42;;;;;;;14.18;8.02;;;;;;;;;;5054160;28;20029;-67
2023/12/13 07:57:46;;;;;;;23.15;8.20;;;;;;;;;;5054250;28;20068;-65
2023/12/13 08:00:51;;;;;;;19.90;8.50;;;;;;;;;;5054351;28;20063;-66
2023/12/13 08:03:56;;;;;;;21.30;9.40;;;;;;;;;;5054200;28;20045;-66
2023/12/13 08:07:00;;;;;;;21.00;10.38;;;;;;;;;;5054136;28;20045;-66
2023/12/13 08:10:08;;;;;;;24.30;11.10;;;;;;;;;;5054088;28;20052;-67
2023/12/13 08:13:12;;;;;;;27.73;9.85;;;;;;;;;;5052680;28;20060;-66
2023/12/13 08:16:17;;;;;;;28.42;12.13;;;;;;;;;;5053368;28;20425;-67
2023/12/13 08:19:21;;;;;;;23.83;11.52;;;;;;;;;;5053655;28;20048;-65
2023/12/13 08:22:25;;;;;;;27.02;12.65;;;;;;;;;;5053752;28;20048;-66
2023/12/13 08:25:30;;;;;;;25.23;10.85;;;;;;;;;;5053882;28;20044;-67
2023/12/13 08:28:34;;;;;;;15.45;9.57;;;;;;;;;;5053586;28;20115;-67
2023/12/13 08:31:38;;;;;;;19.77;10.75;;;;;;;;;;5053537;28;20057;-67
2023/12/13 08:34:45;;;;;;;21.80;9.82;;;;;;;;;;5053497;28;20036;-65
2023/12/13 08:37:49;;;;;;;29.08;12.23;;;;;;;;;;5053595;28;20045;-67
2023/12/13 08:40:53;;;;;;;20.58;11.88;;;;;;;;;;5052827;28;20044;-68
2023/12/13 08:43:57;;;;;;;28.55;12.57;;;;;;;;;;5053446;28;20052;-69
2023/12/13 08:47:02;;;;;;;20.70;11.43;;;;;;;;;;5053284;28;20056;-68
2023/12/13 08:50:07;;;;;;;18.88;9.32;;;;;;;;;;5053275;28;20055;-67
2023/12/13 08:53:11;;;;;;;16.42;6.78;;;;;;;;;;5053537;28;20041;-66
2023/12/13 08:56:16;;;;;;;15.75;5.15;;;;;;;;;;5052637;28;20595;-68
2023/12/13 08:59:21;;;;;;;19.10;6.63;;;;;;;;;;5052994;28;20037;-68
2023/12/13 09:02:25;;;;;;;11.80;5.78;;;;;;;;;;5053116;28;20049;-68
2023/12/13 09:05:33;;;;;;;21.38;6.32;;;;;;;;;;5053214;28;20045;-69
2023/12/13 09:08:37;;;;;;;19.67;6.95;;;;;;;;;;5052706;28;20057;-68
2023/12/13 09:11:42;;;;;;;17.48;6.78;;;;;;;;;;5052181;28;20049;-69
2023/12/13 09:14:47;;;;;;;20.95;6.28;;;;;;;;;;5053005;28;20029;-68
2023/12/13 09:17:51;;;;;;;17.27;5.40;;;;;;;;;;5052816;28;20037;-67
2023/12/13 09:20:55;;;;;;;13.30;4.20;;;;;;;;;;5052971;28;20037;-67
2023/12/13 09:24:00;;;;;;;32.75;5.97;;;;;;;;;;5052865;28;20041;-67
2023/12/13 09:27:05;;;;;;;15.35;4.38;;;;;;;;;;5052424;28;20037;-66
2023/12/13 09:30:11;;;;;;;28.38;5.20;;;19.90;99.90;;;;;;5051831;28;20041;-67
2023/12/13 09:33:16;;;;;;;24.10;3.97;;;;;;;;;;5051992;28;20059;-67
2023/12/13 09:36:20;;;;;;;21.33;3.90;;;;;;;;;;5052543;28;20033;-68
2023/12/13 09:39:24;;;;;;;12.25;3.75;;;;;;;;;;5051710;28;20485;-67
2023/12/13 09:42:29;;;;;;;16.83;3.60;;;20.80;99.90;;;;;;5052644;28;20028;-67
2023/12/13 09:45:35;;;;;;;22.33;5.18;;;20.10;99.90;;;;;;5052651;28;20044;-67
2023/12/13 09:48:40;;;;;;;26.50;5.60;;;;;;;;;;5051346;28;20056;-68
2023/12/13 09:51:46;;;;;;;18.00;4.22;;;21.10;99.90;;;;;;5052248;28;20049;-69
2023/12/13 09:54:52;;;;;;;17.80;4.20;;;21.20;99.90;;;;;;5052913;28;20040;-69
2023/12/13 09:57:56;;;;;;;30.10;4.30;;;;;;;;;;5053083;28;20052;-72
2023/12/13 10:01:10;;;;;;;22.13;4.28;;;20.90;99.90;;;;;;5052727;28;20602;-72
2023/12/13 10:04:15;;;;;;;30.73;5.10;;;;;;;;;;5051391;28;20056;-68
2023/12/13 10:07:19;;;;;;;25.63;4.82;;;;;;;;;;5051464;28;20108;-69
2023/12/13 10:10:24;;;;;;;20.25;4.70;;;;;;;;;;5052227;28;20041;-72
2023/12/13 10:13:28;;;;;;;33.33;5.03;;;;;;;;;;5052726;28;20037;-70
2023/12/13 10:16:40;;;;;;;20.13;4.53;;;20.90;99.90;;;;;;5052626;28;20041;-73
2023/12/13 10:19:44;;;;;;;18.90;4.40;;;;;;;;;;5053420;28;20385;-71
2023/12/13 10:22:49;;;;;;;29.08;5.35;;;;;;;;;;5052579;28;20033;-72
2023/12/13 10:25:55;;;;;;;24.98;4.38;;;21.40;99.90;;;;;;5053163;28;20037;-77
2023/12/13 10:29:03;;;;;;;22.25;5.07;;;21.40;99.90;;;;;;5053577;28;20476;-72
2023/12/13 10:32:07;;;;;;;28.50;5.25;;;;;;;;;;5051662;28;20048;-74
2023/12/13 10:35:11;;;;;;;27.30;4.85;;;;;;;;;;5052485;28;20037;-72
2023/12/13 10:38:16;;;;;;;22.00;4.70;;;;;;;;;;5051288;28;20036;-72
2023/12/13 10:41:27;;;;;;;22.50;4.80;;;20.90;99.90;;;;;;5051768;28;20404;-68
2023/12/13 10:44:33;;;;;;;18.30;4.65;;;20.80;99.90;;;;;;5051525;28;20048;-69
2023/12/13 10:47:44;;;;;;;21.98;4.35;;;20.90;99.90;;;;;;5050998;28;20048;-69
2023/12/13 10:50:50;;;;;;;16.80;4.40;;;20.90;99.90;;;;;;5051456;28;20052;-69
2023/12/13 10:53:56;;;;;;;28.67;5.97;;;20.90;99.90;;;;;;5051706;28;20040;-68
2023/12/13 10:57:00;;;;;;;23.98;4.78;;;;;;;;;;5050505;28;20051;-69
2023/12/13 11:00:06;;;;;;;19.33;4.35;;;20.50;99.90;;;;;;5050825;28;20037;-67
2023/12/13 11:03:19;;;;;;;27.05;5.40;;;20.30;99.90;;;;;;5050490;28;20063;-68
2023/12/13 11:06:26;;;;;;;31.85;5.45;;;20.40;99.90;;;;;;5050053;28;20051;-68
2023/12/13 11:09:31;;;;;;;29.25;5.25;;;;;;;;;;5051044;28;20079;-70
2023/12/13 11:12:49;;;;;;;24.98;4.72;;;21.10;99.90;;;;;;5050899;28;20052;-67
2023/12/13 11:15:53;;;;;;;37.33;4.72;;;;;;;;;;5050302;28;20052;-65
2023/12/13 11:18:58;;;;;;;25.92;5.20;;;;;;;;;;5051298;28;20045;-68
2023/12/13 11:22:06;;;;;;;31.73;5.72;;;18.40;99.90;;;;;;5051192;28;20045;-69
2023/12/13 11:25:11;;;;;;;42.70;7.07;;;19.30;99.90;;;;;;5051342;28;20051;-67
2023/12/13 11:28:23;;;;;;;24.80;4.80;;;19.30;99.90;;;;;;5050509;28;20052;-70
2023/12/13 11:31:27;;;;;;;33.05;5.82;;;;;;;;;;5049979;28;20056;-66
2023/12/13 11:34:42;;;;;;;32.20;5.60;;;19.30;99.90;;;;;;5051214;28;20386;-67
2023/12/13 11:37:53;;;;;;;24.23;4.50;;;19.80;99.90;;;;;;5050107;28;20052;-67
2023/12/13 11:40:58;;;;;;;26.90;6.25;;;;;;;;;;5050941;28;20112;-67
2023/12/13 11:44:02;;;;;;;33.58;5.75;;;;;;;;;;5051343;28;20045;-67
2023/12/13 11:47:10;;;;;;;29.67;5.38;;;19.40;99.90;;;;;;5051114;28;20037;-67
2023/12/13 11:50:19;;;;;;;37.70;7.43;;;19.20;99.90;;;;;;5051505;28;20060;-67
2023/12/13 11:53:23;;;;;;;30.77;7.63;;;;;;;;;;5050750;28;20051;-67
2023/12/13 11:56:28;;;;;;;25.23;5.07;;;;;;;;;;5050891;28;20378;-66
2023/12/13 11:59:32;;;;;;;24.85;5.40;;;;;;;;;;5051390;28;20053;-66
2023/12/13 12:02:36;;;;;;;42.53;6.53;;;;;;;;;;5049434;28;20036;-66
2023/12/13 12:05:42;;;;;;;26.58;5.25;;;19.20;99.90;;;;;;5048766;28;20045;-67
2023/12/13 12:08:47;;;;;;;30.60;6.45;;;;;;;;;;5050041;28;20048;-68
2023/12/13 12:11:55;;;;;;;25.80;4.70;;;19.30;99.90;;;;;;5051674;28;20053;-67
2023/12/13 12:14:59;;;;;;;36.72;4.93;;;;;;;;;;5054042;28;20040;-67
2023/12/13 12:18:04;;;;;;;19.98;5.07;;;20.50;99.90;;;;;;5054124;28;20037;-67
2023/12/13 12:21:09;;;;;;;27.63;6.20;;;;;;;;;;5054598;28;20072;-67
2023/12/13 12:24:13;;;;;;;20.67;4.20;;;;;;;;;;5054098;28;20041;-67
2023/12/13 12:27:23;;;;;;;27.98;5.35;;;19.20;99.90;;;;;;5053162;28;20037;-67
2023/12/13 12:30:27;;;;;;;26.05;4.85;;;;;;;;;;5053640;28;20044;-66
2023/12/13 12:33:32;;;;;;;32.55;5.57;;;;;;;;;;5054076;28;20049;-67
2023/12/13 12:36:36;;;;;;;30.23;5.30;;;;;;;;;;5052807;28;20032;-67
2023/12/13 12:39:40;;;;;;;23.75;5.05;;;;;;;;;;5053980;28;20037;-68
2023/12/13 12:42:45;;;;;;;28.25;4.63;;;;;;;;;;5053667;28;20109;-67
2023/12/13 12:45:50;;;;;;;22.40;4.47;;;19.20;99.90;;;;;;5053309;28;20378;-66
2023/12/13 12:48:54;;;;;;;28.23;4.75;;;;;;;;;;5053579;28;20048;-67
2023/12/13 12:51:58;;;;;;;26.10;4.97;;;;;;;;;;5053631;28;20045;-68
2023/12/13 12:55:04;;;;;;;28.50;6.20;;;;;;;;;;5052544;28;20041;-68
2023/12/13 12:58:08;;;;;;;23.58;5.60;;;;;;;;;;5053337;28;20481;-68
2023/12/13 13:01:15;;;;;;;20.70;4.78;;;;;;;;;;5053249;28;20036;-67
2023/12/13 13:04:20;;;;;;;19.55;4.53;;;;;;;;;;5053136;28;20037;-67
2023/12/13 13:07:24;;;;;;;27.88;5.30;;;;;;;;;;5053090;28;20056;-68
2023/12/13 13:10:29;;;;;;;31.52;4.93;;;;;;;;;;5052172;28;20045;-68
2023/12/13 13:13:34;;;;;;;24.92;4.45;;;;;;;;;;5053195;28;20048;-67
2023/12/13 13:16:38;;;;;;;22.17;4.22;;;;;;;;;;5051674;28;20037;-67
2023/12/13 13:19:42;;;;;;;22.30;4.30;;;;;;;;;;5052862;28;20041;-68
2023/12/13 13:22:49;;;;;;;22.52;4.20;;;;;;;;;;5051801;28;20036;-68
2023/12/13 13:25:53;;;;;;;21.85;5.32;;;;;;;;;;5052176;28;20033;-69
2023/12/13 13:28:57;;;;;;;23.13;5.18;;;;;;;;;;5051905;28;20132;-67
2023/12/13 13:32:01;;;;;;;25.77;5.00;;;;;;;;;;5052742;28;20045;-67
2023/12/13 13:35:06;;;;;;;24.17;4.40;;;;;;;;;;5052062;28;20037;-67
2023/12/13 13:38:11;;;;;;;25.67;6.03;;;;;;;;;;5052623;28;20481;-68
2023/12/13 13:41:15;;;;;;;22.98;4.93;;;;;;;;;;5051702;28;20037;-70
2023/12/13 13:44:20;;;;;;;22.33;4.68;;;;;;;;;;5052667;28;20033;-67
2023/12/13 13:47:24;;;;;;;22.33;4.75;;;;;;;;;;5052156;28;20037;-68
2023/12/13 13:50:28;;;;;;;23.13;4.60;;;;;;;;;;5052233;28;20029;-68
2023/12/13 13:53:33;;;;;;;27.67;4.57;;;;;;;;;;5052475;28;20045;-68
2023/12/13 13:56:37;;;;;;;30.13;6.22;;;;;;;;;;5051761;28;20032;-68
2023/12/13 13:59:41;;;;;;;25.40;4.55;;;;;;;;;;5052133;28;20041;-66
2023/12/13 14:02:45;;;;;;;19.27;4.43;;;;;;;;;;5052294;28;20254;-67
2023/12/13 14:05:50;;;;;;;22.30;4.75;;;;;;;;;;5052095;28;20037;-67
2023/12/13 14:08:54;;;;;;;25.38;5.35;;;;;;;;;;5051769;28;20049;-68
2023/12/13 14:11:59;;;;;;;38.65;14.32;;;;;;;;;;5051670;28;20041;-67
2023/12/13 14:15:03;;;;;;;26.08;5.13;;;;;;;;;;5051974;28;20048;-68
2023/12/13 14:18:08;;;;;;;32.58;6.00;;;;;;;;;;5048841;28;20041;-67
2023/12/13 14:21:13;;;;;;;29.48;6.57;;;;;;;;;;5050842;28;20045;-67
2023/12/13 14:24:17;;;;;;;35.33;5.75;;;;;;;;;;5050982;28;20048;-68
2023/12/13 14:27:25;;;;;;;38.03;6.45;;;;;;;;;;5050427;28;20032;-68
2023/12/13 14:30:29;;;;;;;25.17;6.43;;;;;;;;;;5050538;28;20041;-68
2023/12/13 14:33:34;;;;;;;29.23;5.03;;;17.20;99.90;;;;;;5050836;28;20045;-67
2023/12/13 14:36:38;;;;;;;25.27;5.82;;;;;;;;;;5051270;28;20052;-69
2023/12/13 14:39:43;;;;;;;31.42;5.88;;;;;;;;;;5051636;28;20045;-67
2023/12/13 14:42:47;;;;;;;27.25;5.30;;;;;;;;;;5051386;28;20489;-67
2023/12/13 14:45:53;;;;;;;28.15;5.90;;;18.30;99.90;;;;;;5050951;28;20037;-68
2023/12/13 14:48:59;;;;;;;23.90;5.00;;;;;;;;;;5051110;28;20048;-68
2023/12/13 14:52:04;;;;;;;29.58;5.40;;;18.10;99.90;;;;;;5051274;28;20497;-68
2023/12/13 14:55:08;;;;;;;33.95;6.10;;;;;;;;;;5051254;28;20040;-68
2023/12/13 14:58:13;;;;;;;28.88;5.80;;;;;;;;;;5050934;28;20040;-66
2023/12/13 15:01:18;;;;;;;32.08;6.47;;;;;;;;;;5050863;28;20041;-67
2023/12/13 15:04:22;;;;;;;25.70;6.10;;;;;;;;;;5050615;28;20533;-68
2023/12/13 15:07:26;;;;;;;29.83;7.00;;;;;;;;;;5050998;28;20045;-67
2023/12/13 15:10:31;;;;;;;33.53;5.75;;;;;;;;;;5051528;28;20088;-67
2023/12/13 15:13:35;;;;;;;29.98;5.82;;;;;;;;;;5049818;28;20057;-67
2023/12/13 15:16:40;;;;;;;30.50;6.07;;;;;;;;;;5050639;28;20041;-68
2023/12/13 15:19:44;;;;;;;34.72;5.78;;;;;;;;;;5051056;28;20045;-68
2023/12/13 15:22:48;;;;;;;28.30;5.72;;;;;;;;;;5049922;28;20044;-67
2023/12/13 15:25:54;;;;;;;32.95;6.93;;;;;;;;;;5050516;28;20067;-67
2023/12/13 15:28:59;;;;;;;19.80;5.30;;;;;;;;;;5049837;28;20075;-67
2023/12/13 15:32:11;;;;;;;36.15;6.78;;;;;;;;;;5050248;28;20049;-67
2023/12/13 15:35:15;;;;;;;25.23;7.30;;;;;;;;;;5050724;28;20049;-67
2023/12/13 15:38:20;;;;;;;23.67;4.88;;;;;;;;;;5050557;28;20049;-67
2023/12/13 15:41:24;;;;;;;29.00;5.85;;;;;;;;;;5050602;28;20033;-66
2023/12/13 15:44:29;;;;;;;23.92;6.10;;;;;;;;;;5050351;28;20036;-66
2023/12/13 15:47:33;;;;;;;36.20;7.95;;;;;;;;;;5054241;28;20041;-67
2023/12/13 15:50:37;;;;;;;35.85;8.32;;;;;;;;;;5054273;28;20056;-67
2023/12/13 15:53:42;;;;;;;46.13;9.65;;;;;;;;;;5054381;28;20600;-66
2023/12/13 15:56:46;;;;;;;40.72;9.45;;;;;;;;;;5054517;28;20036;-66
2023/12/13 15:59:52;;;;;;;31.13;7.20;;;;;;;;;;5054305;28;20037;-66
2023/12/13 16:02:59;;;;;;;28.52;7.43;;;;;;;;;;5053478;28;20045;-66
2023/12/13 16:06:04;;;;;;;37.45;9.82;;;;;;;;;;5054162;28;20033;-66
2023/12/13 16:09:08;;;;;;;41.35;10.10;;;;;;;;;;5053800;28;20045;-66
2023/12/13 16:12:12;;;;;;;33.20;7.85;;;;;;;;;;5052974;28;20048;-65
2023/12/13 16:15:17;;;;;;;36.10;9.07;;;;;;;;;;5052499;28;20053;-65
2023/12/13 16:18:22;;;;;;;25.75;7.88;;;;;;;;;;5052471;28;20033;-67
2023/12/13 16:21:31;;;;;;;32.08;7.75;;;;;;;;;;5053202;28;20546;-66
2023/12/13 16:24:36;;;;;;;29.42;7.60;;;;;;;;;;5053281;28;20040;-66
2023/12/13 16:27:41;;;;;;;23.60;6.28;;;;;;;;;;5054051;28;20045;-67
2023/12/13 16:30:50;;;;;;;27.75;7.40;;;;;;;;;;5052835;28;20037;-66
2023/12/13 16:33:55;;;;;;;39.00;8.70;;;;;;;;;;5053857;28;20064;-67
2023/12/13 16:37:03;;;;;;;36.20;8.18;;;;;;;;;;5052990;28;20036;-66
2023/12/13 16:40:11;;;;;;;24.45;6.90;;;;;;;;;;5053295;28;20040;-68
2023/12/13 16:43:17;;;;;;;22.38;7.47;;;;;;;;;;5052059;28;20043;-67
2023/12/13 16:46:23;;;;;;;30.80;7.85;;;;;;;;;;5053335;28;20489;-66
2023/12/13 16:49:28;;;;;;;29.50;7.50;;;;;;;;;;5053482;28;20484;-66
2023/12/13 16:52:32;;;;;;;30.15;8.57;;;;;;;;;;5053054;28;20121;-66
2023/12/13 16:55:37;;;;;;;34.78;9.23;;;;;;;;;;5053369;28;20041;-66
2023/12/13 16:58:41;;;;;;;38.67;9.55;;;;;;;;;;5052317;28;20045;-67
2023/12/13 17:01:46;;;;;;;25.38;8.70;;;;;;;;;;5053330;28;20044;-67
2023/12/13 17:04:50;;;;;;;32.20;7.63;;;;;;;;;;5052480;28;20396;-67
2023/12/13 17:07:55;;;;;;;37.70;8.25;;;;;;;;;;5052714;28;20060;-67
2023/12/13 17:10:59;;;;;;;36.13;7.72;;;;;;;;;;5053488;28;20038;-67
2023/12/13 17:14:04;;;;;;;31.83;7.97;;;;;;;;;;5052808;28;20402;-66
2023/12/13 17:17:08;;;;;;;32.40;10.95;;;;;;;;;;5052098;28;20025;-66
2023/12/13 17:20:13;;;;;;;37.67;8.48;;;;;;;;;;5052550;28;20044;-67
2023/12/13 17:23:17;;;;;;;29.50;7.32;;;;;;;;;;5053311;28;20033;-67
2023/12/13 17:26:22;;;;;;;31.63;8.43;;;;;;;;;;5052017;28;20426;-68
2023/12/13 17:29:27;;;;;;;40.40;8.23;;;;;;;;;;5053099;28;20040;-68
2023/12/13 17:32:31;;;;;;;41.90;8.95;;;;;;;;;;5053054;28;20053;-68
2023/12/13 17:35:36;;;;;;;33.80;8.65;;;;;;;;;;5052329;28;20048;-68
2023/12/13 17:38:40;;;;;;;30.05;8.95;;;;;;;;;;5052432;28;20040;-68
2023/12/13 17:41:44;;;;;;;54.25;13.02;;;;;;;;;;5050920;28;20397;-68